createdAt,value
2018-05-29T00:00:35.006Z,99.99
2018-05-29T00:01:34.942Z,99.99
2018-05-29T00:03:27.788Z,99.99
2018-05-29T00:04:27.680Z,99.99
2018-05-29T00:06:20.508Z,99.99
2018-05-29T00:07:20.411Z,99.99
2018-05-29T00:09:13.286Z,96.75
2018-05-29T00:10:13.161Z,97.81
2018-05-29T00:12:06.526Z,96.85
2018-05-29T00:13:05.924Z,97.91
2018-05-29T00:14:58.865Z,98.00
2018-05-29T00:15:58.772Z,96.94
2018-05-29T00:17:51.623Z,97.81
2018-05-29T00:18:51.513Z,98.10
2018-05-29T00:20:44.396Z,96.66
2018-05-29T00:21:44.280Z,96.18
2018-05-29T00:23:37.105Z,97.33
2018-05-29T00:24:37.022Z,97.71
2018-05-29T00:26:29.901Z,97.38
2018-05-29T00:27:29.777Z,96.56
2018-05-29T00:29:22.597Z,96.27
2018-05-29T00:30:22.505Z,95.79
2018-05-29T00:32:15.387Z,95.75
2018-05-29T00:33:15.253Z,95.55
2018-05-29T00:35:08.098Z,96.13
2018-05-29T00:36:08.007Z,94.31
2018-05-29T00:38:00.872Z,95.07
2018-05-29T00:39:00.756Z,94.88
2018-05-29T00:40:53.600Z,95.07
2018-05-29T00:41:53.558Z,96.03
2018-05-29T00:43:46.376Z,96.37
2018-05-29T00:44:46.271Z,96.27
2018-05-29T00:46:39.099Z,96.08
2018-05-29T00:47:39.006Z,95.65
2018-05-29T00:49:31.867Z,94.79
2018-05-29T00:50:31.831Z,94.69
2018-05-29T00:52:24.607Z,94.31
2018-05-29T00:53:24.515Z,94.40
2018-05-29T00:55:17.395Z,94.12
2018-05-29T00:56:17.253Z,93.54
2018-05-29T00:58:10.116Z,92.58
2018-05-29T00:59:10.032Z,92.77
2018-05-29T01:01:02.888Z,93.35
2018-05-29T01:02:02.849Z,92.39
2018-05-29T01:03:55.695Z,92.48
2018-05-29T01:04:55.532Z,91.72
2018-05-29T01:06:48.736Z,92.39
2018-05-29T01:07:48.293Z,91.52
2018-05-29T01:09:42.122Z,92.00
2018-05-29T01:10:42.058Z,91.91
2018-05-29T01:12:34.923Z,91.62
2018-05-29T01:13:34.839Z,90.47
2018-05-29T01:15:27.614Z,90.66
2018-05-29T01:16:27.526Z,91.52
2018-05-29T01:18:20.386Z,91.81
2018-05-29T01:19:20.278Z,91.96
2018-05-29T01:21:13.122Z,91.00
2018-05-29T01:22:13.027Z,91.48
2018-05-29T01:24:05.902Z,91.42
2018-05-29T01:25:05.795Z,91.62
2018-05-29T01:26:58.606Z,91.72
2018-05-29T01:27:58.524Z,91.57
2018-05-29T01:29:51.372Z,91.38
2018-05-29T01:30:51.281Z,91.38
2018-05-29T01:32:44.109Z,90.90
2018-05-29T01:33:44.029Z,91.09
2018-05-29T01:35:36.911Z,91.14
2018-05-29T01:36:36.767Z,90.23
2018-05-29T01:38:29.630Z,88.98
2018-05-29T01:39:29.524Z,88.60
2018-05-29T01:41:22.405Z,88.89
2018-05-29T01:42:22.307Z,87.93
2018-05-29T01:44:15.107Z,86.97
2018-05-29T01:45:15.016Z,87.26
2018-05-29T01:47:07.878Z,85.82
2018-05-29T01:48:07.769Z,86.78
2018-05-29T01:50:01.204Z,86.68
2018-05-29T01:51:01.048Z,87.16
2018-05-29T01:52:53.927Z,86.68
2018-05-29T01:53:53.808Z,87.64
2018-05-29T01:55:46.621Z,86.21
2018-05-29T01:56:46.556Z,85.15
2018-05-29T01:58:39.408Z,85.63
2018-05-29T01:59:39.309Z,85.05
2018-05-29T02:01:32.137Z,81.66
2018-05-29T02:02:32.230Z,81.46
2018-05-29T02:04:24.914Z,79.16
2018-05-29T02:05:24.779Z,79.59
2018-05-29T02:07:17.625Z,79.88
2018-05-29T02:08:17.530Z,79.97
2018-05-29T02:10:10.410Z,80.22
2018-05-29T02:11:10.176Z,80.60
2018-05-29T02:13:03.028Z,81.51
2018-05-29T02:14:02.923Z,80.83
2018-05-29T02:15:55.700Z,81.79
2018-05-29T02:16:55.578Z,82.04
2018-05-29T02:18:48.412Z,81.60
2018-05-29T02:19:48.323Z,81.95
2018-05-29T02:21:41.184Z,81.98
2018-05-29T02:22:41.069Z,81.37
2018-05-29T02:24:33.827Z,81.27
2018-05-29T02:25:33.722Z,81.95
2018-05-29T02:27:26.606Z,80.60
2018-05-29T02:28:26.461Z,80.99
2018-05-29T02:30:19.327Z,81.18
2018-05-29T02:31:19.214Z,78.40
2018-05-29T02:33:12.105Z,77.73
2018-05-29T02:34:11.977Z,77.73
2018-05-29T02:36:04.836Z,79.36
2018-05-29T02:37:04.718Z,78.02
2018-05-29T02:38:57.588Z,76.19
2018-05-29T02:39:57.470Z,76.00
2018-05-29T02:41:50.308Z,77.53
2018-05-29T02:42:50.211Z,75.62
2018-05-29T02:44:43.098Z,75.81
2018-05-29T02:45:42.975Z,75.71
2018-05-29T02:47:35.805Z,73.32
2018-05-29T02:48:35.719Z,73.80
2018-05-29T02:50:28.630Z,73.99
2018-05-29T02:51:28.459Z,74.08
2018-05-29T02:53:21.342Z,73.80
2018-05-29T02:54:21.206Z,74.85
2018-05-29T02:56:14.077Z,75.33
2018-05-29T02:57:13.978Z,74.08
2018-05-29T02:59:06.849Z,71.31
2018-05-29T03:00:06.717Z,71.37
2018-05-29T03:01:59.590Z,72.23
2018-05-29T03:02:59.471Z,72.61
2018-05-29T03:04:52.230Z,73.38
2018-05-29T03:05:52.121Z,73.09
2018-05-29T03:07:44.983Z,72.42
2018-05-29T03:08:44.867Z,71.88
2018-05-29T03:10:37.703Z,71.46
2018-05-29T03:11:37.611Z,71.88
2018-05-29T03:13:30.475Z,70.79
2018-05-29T03:14:30.369Z,70.89
2018-05-29T03:16:23.712Z,72.36
2018-05-29T03:17:23.635Z,72.74
2018-05-29T03:19:16.378Z,73.22
2018-05-29T03:20:16.271Z,73.80
2018-05-29T03:22:09.124Z,74.18
2018-05-29T03:23:09.016Z,74.18
2018-05-29T03:25:02.397Z,73.13
2018-05-29T03:26:01.678Z,72.36
2018-05-29T03:27:54.543Z,70.73
2018-05-29T03:28:54.412Z,70.64
2018-05-29T03:30:47.274Z,71.08
2018-05-29T03:31:47.169Z,71.50
2018-05-29T03:33:39.920Z,70.83
2018-05-29T03:34:39.859Z,71.50
2018-05-29T03:36:32.691Z,73.80
2018-05-29T03:37:32.570Z,73.76
2018-05-29T03:39:25.459Z,73.80
2018-05-29T03:40:25.333Z,72.17
2018-05-29T03:42:18.195Z,72.45
2018-05-29T03:43:18.054Z,72.84
2018-05-29T03:45:10.904Z,71.31
2018-05-29T03:46:10.806Z,71.69
2018-05-29T03:48:03.686Z,71.88
2018-05-29T03:49:03.558Z,70.73
2018-05-29T03:50:56.425Z,71.50
2018-05-29T03:51:56.394Z,71.50
2018-05-29T03:53:49.073Z,71.59
2018-05-29T03:54:48.953Z,70.92
2018-05-29T03:56:41.692Z,69.96
2018-05-29T03:57:41.628Z,70.35
2018-05-29T03:59:34.495Z,69.48
2018-05-29T04:00:34.374Z,69.68
2018-05-29T04:02:27.229Z,69.77
2018-05-29T04:03:27.113Z,70.44
2018-05-29T04:05:19.868Z,70.44
2018-05-29T04:06:19.744Z,70.35
2018-05-29T04:08:12.607Z,70.06
2018-05-29T04:09:12.493Z,70.35
2018-05-29T04:11:05.386Z,70.35
2018-05-29T04:12:05.247Z,70.44
2018-05-29T04:13:58.092Z,70.64
2018-05-29T04:14:58.019Z,70.64
2018-05-29T04:16:50.872Z,71.88
2018-05-29T04:17:50.751Z,71.69
2018-05-29T04:19:43.501Z,72.17
2018-05-29T04:20:43.430Z,72.17
2018-05-29T04:22:36.276Z,72.20
2018-05-29T04:23:36.158Z,72.59
2018-05-29T04:25:29.403Z,71.72
2018-05-29T04:26:29.323Z,72.78
2018-05-29T04:28:22.183Z,72.49
2018-05-29T04:29:22.074Z,71.82
2018-05-29T04:31:14.834Z,71.92
2018-05-29T04:32:14.707Z,72.11
2018-05-29T04:34:07.471Z,71.92
2018-05-29T04:35:07.360Z,72.59
2018-05-29T04:37:01.264Z,72.30
2018-05-29T04:38:00.517Z,74.02
2018-05-29T04:39:53.387Z,72.30
2018-05-29T04:40:53.287Z,72.97
2018-05-29T04:42:46.127Z,74.60
2018-05-29T04:43:46.042Z,75.65
2018-05-29T04:45:38.885Z,75.31
2018-05-29T04:46:38.771Z,75.98
2018-05-29T04:48:31.592Z,76.07
2018-05-29T04:49:31.515Z,76.07
2018-05-29T04:51:24.389Z,78.77
2018-05-29T04:52:24.295Z,78.67
2018-05-29T04:54:17.100Z,78.00
2018-05-29T04:55:17.037Z,79.34
2018-05-29T04:57:09.870Z,79.24
2018-05-29T04:58:09.779Z,79.05
2018-05-29T05:00:02.592Z,78.96
2018-05-29T05:01:02.503Z,78.61
2018-05-29T05:02:57.820Z,78.61
2018-05-29T05:03:57.714Z,79.28
2018-05-29T05:05:50.600Z,80.24
2018-05-29T05:06:50.474Z,80.24
2018-05-29T05:08:43.864Z,81.78
2018-05-29T05:09:43.729Z,81.49
2018-05-29T05:11:36.562Z,82.84
2018-05-29T05:12:36.480Z,83.74
2018-05-29T05:14:29.343Z,84.51
2018-05-29T05:15:29.236Z,84.03
2018-05-29T05:17:22.571Z,84.89
2018-05-29T05:18:22.483Z,83.84
2018-05-29T05:20:15.391Z,85.18
2018-05-29T05:21:15.243Z,86.33
2018-05-29T05:23:09.321Z,85.80
2018-05-29T05:24:09.210Z,86.95
2018-05-29T05:26:02.051Z,87.62
2018-05-29T05:27:01.961Z,88.49
2018-05-29T05:28:54.829Z,85.99
2018-05-29T05:29:54.709Z,86.95
2018-05-29T05:31:47.549Z,87.43
2018-05-29T05:32:47.467Z,88.20
2018-05-29T05:34:40.322Z,89.21
2018-05-29T05:35:40.232Z,88.63
2018-05-29T05:37:33.060Z,86.32
2018-05-29T05:38:32.952Z,87.29
2018-05-29T05:40:25.809Z,86.90
2018-05-29T05:41:25.750Z,87.29
2018-05-29T05:43:18.758Z,86.65
2018-05-29T05:44:18.660Z,86.18
2018-05-29T05:46:11.571Z,87.42
2018-05-29T05:47:11.412Z,87.13
2018-05-29T05:49:04.777Z,89.39
2018-05-29T05:50:04.261Z,89.58
2018-05-29T05:51:58.711Z,91.13
2018-05-29T05:52:58.573Z,91.03
2018-05-29T05:54:51.391Z,90.16
2018-05-29T05:55:51.389Z,93.15
2018-05-29T05:57:44.171Z,89.72
2018-05-29T05:58:44.053Z,90.97
2018-05-29T06:00:36.901Z,93.38
2018-05-29T06:01:36.798Z,95.21
2018-05-29T06:03:29.766Z,96.08
2018-05-29T06:04:29.657Z,96.94
2018-05-29T06:06:22.611Z,97.52
2018-05-29T06:07:22.527Z,97.24
2018-05-29T06:09:15.374Z,96.37
2018-05-29T06:10:15.274Z,98.44
2018-05-29T06:12:08.198Z,99.99
2018-05-29T06:13:08.103Z,99.99
2018-05-29T06:15:01.062Z,99.99
2018-05-29T06:16:00.958Z,99.99
2018-05-29T06:17:53.904Z,99.99
2018-05-29T06:18:53.806Z,99.99
2018-05-29T06:20:47.172Z,99.99
2018-05-29T06:21:47.131Z,99.99
2018-05-29T06:23:40.061Z,99.99
2018-05-29T06:24:39.927Z,99.99
2018-05-29T06:26:32.759Z,99.99
2018-05-29T06:27:32.681Z,99.99
2018-05-29T06:29:25.560Z,99.99
2018-05-29T06:30:25.416Z,99.99
2018-05-29T06:32:18.290Z,99.99
2018-05-29T06:33:18.207Z,99.99
2018-05-29T06:35:11.025Z,99.99
2018-05-29T06:36:10.919Z,99.99
2018-05-29T06:38:03.770Z,99.99
2018-05-29T06:39:03.679Z,99.99
2018-05-29T06:40:56.540Z,99.99
2018-05-29T06:41:56.416Z,99.99
2018-05-29T06:43:49.290Z,99.99
2018-05-29T06:44:49.230Z,99.99
2018-05-29T06:46:42.031Z,99.99
2018-05-29T06:47:41.924Z,99.99
2018-05-29T06:49:34.872Z,99.99
2018-05-29T06:50:34.771Z,99.99
2018-05-29T06:52:27.738Z,99.99
2018-05-29T06:53:27.640Z,99.99
2018-05-29T06:55:20.596Z,99.99
2018-05-29T06:56:20.468Z,99.99
2018-05-29T06:58:13.461Z,99.99
2018-05-29T06:59:13.334Z,99.99
2018-05-29T07:01:06.181Z,99.99
2018-05-29T07:02:06.093Z,99.99
2018-05-29T07:03:59.087Z,99.99
2018-05-29T07:04:58.928Z,99.99
2018-05-29T07:06:52.289Z,99.99
2018-05-29T07:07:51.782Z,99.99
2018-05-29T07:09:45.179Z,99.99
2018-05-29T07:10:44.633Z,99.99
2018-05-29T07:12:37.489Z,99.99
2018-05-29T07:13:37.403Z,99.99
2018-05-29T07:15:30.335Z,99.99
2018-05-29T07:16:30.260Z,99.99
2018-05-29T07:18:23.220Z,99.99
2018-05-29T07:19:23.087Z,99.99
2018-05-29T07:21:16.023Z,99.99
2018-05-29T07:22:15.937Z,99.99
2018-05-29T07:24:08.897Z,99.99
2018-05-29T07:25:08.792Z,99.99
2018-05-29T07:27:01.743Z,99.99
2018-05-29T07:28:01.660Z,99.99
2018-05-29T07:29:54.620Z,99.99
2018-05-29T07:30:54.492Z,99.99
2018-05-29T07:32:47.438Z,99.99
2018-05-29T07:33:47.351Z,99.99
2018-05-29T07:35:40.824Z,99.99
2018-05-29T07:36:40.745Z,99.99
2018-05-29T07:38:33.667Z,99.99
2018-05-29T07:39:33.611Z,99.99
2018-05-29T07:41:26.930Z,99.99
2018-05-29T07:42:26.820Z,99.99
2018-05-29T07:44:22.781Z,99.99
2018-05-29T07:45:22.691Z,99.99
2018-05-29T07:47:15.616Z,99.99
2018-05-29T07:48:15.519Z,99.99
2018-05-29T07:50:08.459Z,99.99
2018-05-29T07:51:08.356Z,99.99
2018-05-29T07:53:01.322Z,99.99
2018-05-29T07:54:01.216Z,99.99
2018-05-29T07:55:54.143Z,99.99
2018-05-29T07:56:54.061Z,99.99
2018-05-29T07:58:47.037Z,99.99
2018-05-29T07:59:46.916Z,99.99
2018-05-29T08:01:39.847Z,99.99
2018-05-29T08:02:39.770Z,99.99
2018-05-29T08:04:33.263Z,99.99
2018-05-29T08:05:33.139Z,99.99
2018-05-29T08:07:26.097Z,99.99
2018-05-29T08:08:25.988Z,99.99
2018-05-29T08:10:18.957Z,99.99
2018-05-29T08:11:18.850Z,99.99
2018-05-29T08:13:11.789Z,99.99
2018-05-29T08:14:11.681Z,99.99
2018-05-29T08:16:05.049Z,99.99
2018-05-29T08:17:04.960Z,99.99
2018-05-29T08:18:57.911Z,99.99
2018-05-29T08:19:57.803Z,99.99
2018-05-29T08:21:50.739Z,99.99
2018-05-29T08:22:50.650Z,99.99
2018-05-29T08:24:43.660Z,99.99
2018-05-29T08:25:43.507Z,99.99
2018-05-29T08:27:36.436Z,99.99
2018-05-29T08:28:36.362Z,99.99
2018-05-29T08:30:29.359Z,99.99
2018-05-29T08:31:29.203Z,99.99
2018-05-29T08:33:22.031Z,99.99
2018-05-29T08:34:21.954Z,99.99
2018-05-29T08:36:14.901Z,99.99
2018-05-29T08:37:14.812Z,99.99
2018-05-29T08:39:07.751Z,99.99
2018-05-29T08:40:07.648Z,99.99
2018-05-29T08:42:00.613Z,99.99
2018-05-29T08:43:00.519Z,99.99
2018-05-29T08:44:53.455Z,99.99
2018-05-29T08:45:54.292Z,99.99
2018-05-29T08:47:46.748Z,99.99
2018-05-29T08:48:46.250Z,99.99
2018-05-29T08:50:39.286Z,99.99
2018-05-29T08:51:39.188Z,99.99
2018-05-29T08:53:32.137Z,99.99
2018-05-29T08:54:32.028Z,99.99
2018-05-29T08:56:25.053Z,99.99
2018-05-29T08:57:24.944Z,99.99
2018-05-29T08:59:17.857Z,99.99
2018-05-29T09:00:17.739Z,99.99
2018-05-29T09:02:10.735Z,99.99
2018-05-29T09:03:10.596Z,99.99
2018-05-29T09:05:03.549Z,99.99
2018-05-29T09:06:03.435Z,99.99
2018-05-29T09:07:56.414Z,99.99
2018-05-29T09:08:56.290Z,99.99
2018-05-29T09:10:49.228Z,99.99
2018-05-29T09:11:49.159Z,99.99
2018-05-29T09:13:42.105Z,99.55
2018-05-29T09:14:42.002Z,96.74
2018-05-29T09:16:36.396Z,94.31
2018-05-29T09:17:36.265Z,94.60
2018-05-29T09:19:29.225Z,94.41
2018-05-29T09:20:29.121Z,95.38
2018-05-29T09:22:22.611Z,95.43
2018-05-29T09:23:21.976Z,94.26
2018-05-29T09:25:14.932Z,93.87
2018-05-29T09:26:14.814Z,92.32
2018-05-29T09:28:07.761Z,91.54
2018-05-29T09:29:07.702Z,89.21
2018-05-29T09:31:00.619Z,87.12
2018-05-29T09:32:00.564Z,86.63
2018-05-29T09:33:53.518Z,86.78
2018-05-29T09:34:53.376Z,85.90
2018-05-29T09:36:46.327Z,87.16
2018-05-29T09:37:46.237Z,86.58
2018-05-29T09:39:39.202Z,86.58
2018-05-29T09:40:39.083Z,85.42
2018-05-29T09:42:32.033Z,86.04
2018-05-29T09:43:31.943Z,84.88
2018-05-29T09:45:25.911Z,82.15
2018-05-29T09:46:25.812Z,83.32
2018-05-29T09:48:18.728Z,83.42
2018-05-29T09:49:18.564Z,82.93
2018-05-29T09:51:11.427Z,82.84
2018-05-29T09:52:11.317Z,81.76
2018-05-29T09:54:04.361Z,81.18
2018-05-29T09:55:04.153Z,80.89
2018-05-29T09:56:57.033Z,79.12
2018-05-29T09:57:56.924Z,77.91
2018-05-29T09:59:49.754Z,78.40
2018-05-29T10:00:49.695Z,77.04
2018-05-29T10:02:42.532Z,75.74
2018-05-29T10:03:42.452Z,76.65
2018-05-29T10:05:35.261Z,76.75
2018-05-29T10:06:35.170Z,76.65
2018-05-29T10:08:28.108Z,75.09
2018-05-29T10:09:28.012Z,74.26
2018-05-29T10:11:20.906Z,73.86
2018-05-29T10:12:20.772Z,75.46
2018-05-29T10:14:14.102Z,73.41
2018-05-29T10:15:14.023Z,72.15
2018-05-29T10:17:06.959Z,72.73
2018-05-29T10:18:06.781Z,70.62
2018-05-29T10:19:59.619Z,68.97
2018-05-29T10:20:59.531Z,69.36
2018-05-29T10:22:52.402Z,69.91
2018-05-29T10:23:52.281Z,68.29
2018-05-29T10:25:45.619Z,68.64
2018-05-29T10:26:45.528Z,69.52
2018-05-29T10:28:38.392Z,68.26
2018-05-29T10:29:38.288Z,69.26
2018-05-29T10:31:31.119Z,69.88
2018-05-29T10:32:31.046Z,67.05
2018-05-29T10:34:23.909Z,65.72
2018-05-29T10:35:23.792Z,65.43
2018-05-29T10:37:16.631Z,63.67
2018-05-29T10:38:16.555Z,64.78
2018-05-29T10:40:09.378Z,62.05
2018-05-29T10:41:09.282Z,62.44
2018-05-29T10:43:02.119Z,61.76
2018-05-29T10:44:02.048Z,60.91
2018-05-29T10:45:54.890Z,59.83
2018-05-29T10:46:54.834Z,59.15
2018-05-29T10:48:47.670Z,58.76
2018-05-29T10:49:47.555Z,60.45
2018-05-29T10:51:40.408Z,59.28
2018-05-29T10:52:40.291Z,60.64
2018-05-29T10:54:34.058Z,58.11
2018-05-29T10:55:33.032Z,58.01
2018-05-29T10:57:25.868Z,56.35
2018-05-29T10:58:25.790Z,56.77
2018-05-29T11:00:18.700Z,58.04
2018-05-29T11:01:18.552Z,57.95
2018-05-29T11:03:11.398Z,58.07
2018-05-29T11:04:11.281Z,57.03
2018-05-29T11:06:04.230Z,58.30
2018-05-29T11:07:04.136Z,58.20
2018-05-29T11:08:56.985Z,57.13
2018-05-29T11:09:56.891Z,58.33
2018-05-29T11:11:49.740Z,54.91
2018-05-29T11:12:49.638Z,56.47
2018-05-29T11:14:42.501Z,57.57
2018-05-29T11:15:42.401Z,54.25
2018-05-29T11:17:35.245Z,55.00
2018-05-29T11:18:35.141Z,55.81
2018-05-29T11:20:27.966Z,54.08
2018-05-29T11:21:27.887Z,53.59
2018-05-29T11:23:20.743Z,54.86
2018-05-29T11:24:20.632Z,54.47
2018-05-29T11:26:13.479Z,53.59
2018-05-29T11:27:13.384Z,54.50
2018-05-29T11:29:06.240Z,51.37
2018-05-29T11:30:06.134Z,51.56
2018-05-29T11:31:58.994Z,51.93
2018-05-29T11:32:58.886Z,52.54
2018-05-29T11:34:52.261Z,50.49
2018-05-29T11:35:52.161Z,51.27
2018-05-29T11:37:44.991Z,51.17
2018-05-29T11:38:44.891Z,51.56
2018-05-29T11:40:37.722Z,51.29
2018-05-29T11:41:37.654Z,50.42
2018-05-29T11:43:31.091Z,51.20
2018-05-29T11:44:30.909Z,50.90
2018-05-29T11:46:23.737Z,49.85
2018-05-29T11:47:23.663Z,49.85
2018-05-29T11:49:16.507Z,49.41
2018-05-29T11:50:16.415Z,50.39
2018-05-29T11:52:09.440Z,50.24
2018-05-29T11:53:09.362Z,49.36
2018-05-29T11:55:02.214Z,48.65
2018-05-29T11:56:02.113Z,48.55
2018-05-29T11:57:54.939Z,48.94
2018-05-29T11:58:54.862Z,48.65
2018-05-29T12:00:48.751Z,49.26
2018-05-29T12:01:47.626Z,46.84
2018-05-29T12:03:40.435Z,48.03
2018-05-29T12:04:40.374Z,46.17
2018-05-29T12:06:33.222Z,48.63
2018-05-29T12:07:33.155Z,47.45
2018-05-29T12:09:25.967Z,48.63
2018-05-29T12:10:26.377Z,47.06
2018-05-29T12:12:18.716Z,45.86
2018-05-29T12:13:18.613Z,46.15
2018-05-29T12:15:11.483Z,48.50
2018-05-29T12:16:11.365Z,48.70
2018-05-29T12:18:04.192Z,46.42
2018-05-29T12:19:04.118Z,47.40
2018-05-29T12:20:56.953Z,48.19
2018-05-29T12:21:56.863Z,47.72
2018-05-29T12:23:49.701Z,45.49
2018-05-29T12:24:49.610Z,45.39
2018-05-29T12:26:42.591Z,45.51
2018-05-29T12:27:42.460Z,44.51
2018-05-29T12:29:35.285Z,44.68
2018-05-29T12:30:35.212Z,44.78
2018-05-29T12:32:28.061Z,44.09
2018-05-29T12:33:27.959Z,43.21
2018-05-29T12:35:21.396Z,43.80
2018-05-29T12:36:21.313Z,42.82
2018-05-29T12:38:14.172Z,42.43
2018-05-29T12:39:14.071Z,43.21
2018-05-29T12:41:06.942Z,41.76
2018-05-29T12:42:06.834Z,41.94
2018-05-29T12:43:59.686Z,42.72
2018-05-29T12:44:59.568Z,42.25
2018-05-29T12:46:53.010Z,42.94
2018-05-29T12:47:52.332Z,43.43
2018-05-29T12:49:45.169Z,42.96
2018-05-29T12:50:45.117Z,41.98
2018-05-29T12:52:37.919Z,41.58
2018-05-29T12:53:37.844Z,41.56
2018-05-29T12:55:33.899Z,43.72
2018-05-29T12:56:33.607Z,42.57
2018-05-29T12:58:27.619Z,42.49
2018-05-29T12:59:27.516Z,43.57
2018-05-29T13:01:20.446Z,42.88
2018-05-29T13:02:20.374Z,42.19
2018-05-29T13:04:13.204Z,42.98
2018-05-29T13:05:13.120Z,42.98
2018-05-29T13:07:06.482Z,43.98
2018-05-29T13:08:05.879Z,42.90
2018-05-29T13:09:58.718Z,42.98
2018-05-29T13:10:58.614Z,43.86
2018-05-29T13:12:51.439Z,42.63
2018-05-29T13:13:51.379Z,42.02
2018-05-29T13:15:44.216Z,43.08
2018-05-29T13:16:44.183Z,43.18
2018-05-29T13:18:36.960Z,44.04
2018-05-29T13:19:36.884Z,43.96
2018-05-29T13:21:29.730Z,43.37
2018-05-29T13:22:29.649Z,42.88
2018-05-29T13:24:22.457Z,44.01
2018-05-29T13:25:22.375Z,41.16
2018-05-29T13:27:15.207Z,42.16
2018-05-29T13:28:15.106Z,41.88
2018-05-29T13:30:07.944Z,41.17
2018-05-29T13:31:07.869Z,40.31
2018-05-29T13:33:00.720Z,39.21
2018-05-29T13:34:00.612Z,40.86
2018-05-29T13:35:53.477Z,39.31
2018-05-29T13:36:53.363Z,40.29
2018-05-29T13:38:46.213Z,40.39
2018-05-29T13:39:46.115Z,40.56
2018-05-29T13:41:38.960Z,40.19
2018-05-29T13:42:38.865Z,40.69
2018-05-29T13:44:31.706Z,39.80
2018-05-29T13:45:31.628Z,39.80
2018-05-29T13:47:24.512Z,40.56
2018-05-29T13:48:24.388Z,40.69
2018-05-29T13:50:17.199Z,41.09
2018-05-29T13:51:17.131Z,41.00
2018-05-29T13:53:09.953Z,40.82
2018-05-29T13:54:09.861Z,40.70
2018-05-29T13:56:02.740Z,40.47
2018-05-29T13:57:02.655Z,42.02
2018-05-29T13:58:55.989Z,42.39
2018-05-29T13:59:55.884Z,42.39
2018-05-29T14:01:48.718Z,43.37
2018-05-29T14:02:48.627Z,43.37
2018-05-29T14:04:42.109Z,43.27
2018-05-29T14:05:41.892Z,42.61
2018-05-29T14:07:34.771Z,42.92
2018-05-29T14:08:34.652Z,42.94
2018-05-29T14:10:27.468Z,42.45
2018-05-29T14:11:27.397Z,42.94
2018-05-29T14:13:20.213Z,43.14
2018-05-29T14:14:20.131Z,42.75
2018-05-29T14:16:13.092Z,43.04
2018-05-29T14:17:12.991Z,43.04
2018-05-29T14:19:05.825Z,43.32
2018-05-29T14:20:05.747Z,43.49
2018-05-29T14:21:58.591Z,43.37
2018-05-29T14:22:58.478Z,43.66
2018-05-29T14:24:51.817Z,43.45
2018-05-29T14:25:51.751Z,44.33
2018-05-29T14:27:44.719Z,44.51
2018-05-29T14:28:44.589Z,44.31
2018-05-29T14:30:37.452Z,45.17
2018-05-29T14:31:37.366Z,45.07
2018-05-29T14:33:30.174Z,46.52
2018-05-29T14:34:30.097Z,46.23
2018-05-29T14:36:22.950Z,45.93
2018-05-29T14:37:22.839Z,46.40
2018-05-29T14:39:15.669Z,47.47
2018-05-29T14:40:15.591Z,46.86
2018-05-29T14:42:08.538Z,47.65
2018-05-29T14:43:08.455Z,48.63
2018-05-29T14:45:01.332Z,48.60
2018-05-29T14:46:01.254Z,48.50
2018-05-29T14:47:54.550Z,48.87
2018-05-29T14:48:54.455Z,48.87
2018-05-29T14:50:47.288Z,48.87
2018-05-29T14:51:47.198Z,49.16
2018-05-29T14:53:40.177Z,49.07
2018-05-29T14:54:40.058Z,49.55
2018-05-29T14:56:32.934Z,50.05
2018-05-29T14:57:32.840Z,50.15
2018-05-29T14:59:25.753Z,50.44
2018-05-29T15:00:25.666Z,50.63
2018-05-29T15:02:18.519Z,50.42
2018-05-29T15:03:18.429Z,50.90
2018-05-29T15:05:11.279Z,52.15
2018-05-29T15:06:11.151Z,51.76
2018-05-29T15:08:03.988Z,51.86
2018-05-29T15:09:03.918Z,52.34
2018-05-29T15:10:56.771Z,52.02
2018-05-29T15:11:56.670Z,53.00
2018-05-29T15:13:49.605Z,52.02
2018-05-29T15:14:49.507Z,53.00
2018-05-29T15:16:42.363Z,53.78
2018-05-29T15:17:42.254Z,53.09
2018-05-29T15:19:35.093Z,53.95
2018-05-29T15:20:35.013Z,53.36
2018-05-29T15:22:28.073Z,54.05
2018-05-29T15:23:27.954Z,54.14
2018-05-29T15:25:21.417Z,52.87
2018-05-29T15:26:21.316Z,52.78
2018-05-29T15:28:14.178Z,52.68
2018-05-29T15:29:14.080Z,52.58
2018-05-29T15:31:06.939Z,53.07
2018-05-29T15:32:06.827Z,53.17
2018-05-29T15:33:59.651Z,52.87
2018-05-29T15:34:59.581Z,53.07
2018-05-29T15:36:52.419Z,52.97
2018-05-29T15:37:52.319Z,53.07
2018-05-29T15:39:45.167Z,53.46
2018-05-29T15:40:45.128Z,53.75
2018-05-29T15:42:37.915Z,53.85
2018-05-29T15:43:37.827Z,53.85
2018-05-29T15:45:30.755Z,54.73
2018-05-29T15:46:30.666Z,54.50
2018-05-29T15:48:23.522Z,53.95
2018-05-29T15:49:23.418Z,54.50
2018-05-29T15:51:16.250Z,55.87
2018-05-29T15:52:16.243Z,55.29
2018-05-29T15:54:09.545Z,55.77
2018-05-29T15:55:08.942Z,55.68
2018-05-29T15:57:01.761Z,55.48
2018-05-29T15:58:01.691Z,55.77
2018-05-29T15:59:54.580Z,56.23
2018-05-29T16:00:54.416Z,56.62
2018-05-29T16:02:47.256Z,56.33
2018-05-29T16:03:47.169Z,57.11
2018-05-29T16:05:40.015Z,57.96
2018-05-29T16:06:39.922Z,58.35
2018-05-29T16:08:32.766Z,58.45
2018-05-29T16:09:32.686Z,58.48
2018-05-29T16:11:25.577Z,57.70
2018-05-29T16:12:25.423Z,57.89
2018-05-29T16:14:18.318Z,57.60
2018-05-29T16:15:18.165Z,57.60
2018-05-29T16:17:10.993Z,57.99
2018-05-29T16:18:10.916Z,57.89
2018-05-29T16:20:03.867Z,58.58
2018-05-29T16:21:03.764Z,58.48
2018-05-29T16:22:56.602Z,58.58
2018-05-29T16:23:56.584Z,58.58
2018-05-29T16:25:49.397Z,60.03
2018-05-29T16:26:49.289Z,58.84
2018-05-29T16:28:42.119Z,59.33
2018-05-29T16:29:42.028Z,60.78
2018-05-29T16:31:34.860Z,61.66
2018-05-29T16:32:34.767Z,61.18
2018-05-29T16:34:27.605Z,60.10
2018-05-29T16:35:27.560Z,58.94
2018-05-29T16:37:20.365Z,60.00
2018-05-29T16:38:20.283Z,61.08
2018-05-29T16:40:13.154Z,61.66
2018-05-29T16:41:13.036Z,61.86
2018-05-29T16:43:05.863Z,60.59
2018-05-29T16:44:05.787Z,61.57
2018-05-29T16:45:58.598Z,61.44
2018-05-29T16:46:58.511Z,61.15
2018-05-29T16:48:51.470Z,61.63
2018-05-29T16:49:51.415Z,64.17
2018-05-29T16:51:44.218Z,63.68
2018-05-29T16:52:44.116Z,63.78
2018-05-29T16:54:37.990Z,62.90
2018-05-29T16:55:37.902Z,62.80
2018-05-29T16:57:31.370Z,62.70
2018-05-29T16:58:31.259Z,62.22
2018-05-29T17:00:24.310Z,62.51
2018-05-29T17:01:23.999Z,63.19
2018-05-29T17:03:16.848Z,61.83
2018-05-29T17:04:16.762Z,61.63
2018-05-29T17:06:10.199Z,61.63
2018-05-29T17:07:09.910Z,62.12
2018-05-29T17:09:02.760Z,62.12
2018-05-29T17:10:02.692Z,62.80
2018-05-29T17:11:55.500Z,64.94
2018-05-29T17:12:55.409Z,66.41
2018-05-29T17:14:48.263Z,63.35
2018-05-29T17:15:48.160Z,64.72
2018-05-29T17:17:41.504Z,65.98
2018-05-29T17:18:41.417Z,66.17
2018-05-29T17:20:34.286Z,64.62
2018-05-29T17:21:34.169Z,65.20
2018-05-29T17:23:27.024Z,64.72
2018-05-29T17:24:26.932Z,64.81
2018-05-29T17:26:19.881Z,64.91
2018-05-29T17:27:19.805Z,65.01
2018-05-29T17:29:12.720Z,66.34
2018-05-29T17:30:12.625Z,66.34
2018-05-29T17:32:05.508Z,67.96
2018-05-29T17:33:05.370Z,68.93
2018-05-29T17:34:58.208Z,69.90
2018-05-29T17:35:58.130Z,70.36
2018-05-29T17:37:51.069Z,70.84
2018-05-29T17:38:50.969Z,70.94
2018-05-29T17:40:43.908Z,71.23
2018-05-29T17:41:43.845Z,71.81
2018-05-29T17:43:36.799Z,72.01
2018-05-29T17:44:36.587Z,72.69
2018-05-29T17:46:29.552Z,72.78
2018-05-29T17:47:29.435Z,74.44
2018-05-29T17:49:22.485Z,74.54
2018-05-29T17:50:22.279Z,74.54
2018-05-29T17:52:15.259Z,75.12
2018-05-29T17:53:15.139Z,76.18
2018-05-29T17:55:08.090Z,77.15
2018-05-29T17:56:08.174Z,76.87
2018-05-29T17:58:00.863Z,76.87
2018-05-29T17:59:00.732Z,78.52
2018-05-29T18:00:53.692Z,78.81
2018-05-29T18:01:53.582Z,78.33
2018-05-29T18:03:46.534Z,80.27
2018-05-29T18:04:46.441Z,80.56
2018-05-29T18:06:39.385Z,81.14
2018-05-29T18:07:39.301Z,81.04
2018-05-29T18:09:32.243Z,82.40
2018-05-29T18:10:32.162Z,80.91
2018-05-29T18:12:25.071Z,80.91
2018-05-29T18:13:25.049Z,80.32
2018-05-29T18:15:17.849Z,80.32
2018-05-29T18:16:17.748Z,81.01
2018-05-29T18:18:10.721Z,81.88
2018-05-29T18:19:10.596Z,81.93
2018-05-29T18:21:03.562Z,82.23
2018-05-29T18:22:03.456Z,82.52
2018-05-29T18:23:56.304Z,83.88
2018-05-29T18:24:56.214Z,83.20
2018-05-29T18:26:49.128Z,84.56
2018-05-29T18:27:48.950Z,85.82
2018-05-29T18:29:41.909Z,89.22
2018-05-29T18:30:41.819Z,90.28
2018-05-29T18:32:34.666Z,92.47